Time;durP1;ratioP1;P1;durP2;ratioP2;P2;SDS_P1;SDS_P2;PMS_P1;PMS_P2;Temp;Humidity;BMP_temperature;BMP_pressure;BME280_temperature;BME280_humidity;BME280_pressure;Samples;Min_cycle;Max_cycle;Signal;HPM_P1;HPM_P2
2023/11/01 00:01:44;;;;;;;2.78;1.88;;;;;;;6.81;83.25;92532.06;2055401;69;20166;-75
2023/11/01 00:04:10;;;;;;;4.15;1.90;;;;;;;6.82;83.34;92525.13;2055115;69;20141;-75
2023/11/01 00:06:40;;;;;;;3.47;1.80;;;;;;;6.53;84.68;92511.91;2054638;69;20141;-74
2023/11/01 00:09:07;;;;;;;2.60;1.50;;;;;;;6.72;84.90;92518.81;2056736;69;20233;-74
2023/11/01 00:11:50;;;;;;;2.63;1.52;;;;;;;6.82;84.72;92513.94;2056759;69;20130;-75
2023/11/01 00:14:22;;;;;;;6.25;2.00;;;;;;;6.86;83.49;92517.78;2053834;70;20255;-74
2023/11/01 00:16:54;;;;;;;5.00;1.90;;;;;;;6.80;84.10;92522.94;2055655;69;20157;-74
2023/11/01 00:19:21;;;;;;;5.30;1.60;;;;;;;6.76;83.46;92519.84;2055094;69;20142;-74
2023/11/01 00:21:47;;;;;;;3.17;1.77;;;;;;;6.79;83.77;92527.06;2057202;69;20229;-74
2023/11/01 00:24:17;;;;;;;3.55;1.63;;;;;;;6.83;83.23;92526.63;2054925;69;20162;-75
2023/11/01 00:26:46;;;;;;;3.45;1.48;;;;;;;6.83;82.97;92527.38;2054839;69;20169;-75
2023/11/01 00:29:13;;;;;;;2.45;1.63;;;;;;;6.75;83.36;92526.78;2054519;70;20620;-76
2023/11/01 00:31:39;;;;;;;4.85;1.90;;;;;;;6.36;84.45;92521.19;2056806;69;20154;-75
2023/11/01 00:34:05;;;;;;;2.88;2.00;;;;;;;6.62;84.23;92513.97;2054730;69;20158;-78
2023/11/01 00:36:32;;;;;;;6.60;2.00;;;;;;;6.70;83.58;92518.69;2054383;70;20130;-77
2023/11/01 00:39:00;;;;;;;6.38;2.17;;;;;;;6.68;84.27;92516.47;2054192;70;20194;-79
2023/11/01 00:41:28;;;;;;;3.55;2.42;;;;;;;6.33;84.33;92513.25;2054626;69;20535;-79
2023/11/01 00:43:54;;;;;;;2.42;1.98;;;;;;;6.62;83.79;92516.03;2054860;69;20228;-75
2023/11/01 00:46:21;;;;;;;4.35;1.80;;;;;;;6.71;83.49;92517.34;2054108;70;20157;-76
2023/11/01 00:48:50;;;;;;;3.03;2.08;;;;;;;6.73;83.80;92521.03;2054352;70;20598;-75
2023/11/01 00:51:18;;;;;;;2.20;1.55;;;;;;;6.75;83.41;92520.44;2054730;69;20174;-76
2023/11/01 00:53:44;;;;;;;3.13;2.08;;;;;;;6.79;83.01;92527.06;2054620;69;20245;-75
2023/11/01 00:56:14;;;;;;;2.97;1.70;;;;;;;6.77;82.87;92532.50;2054671;69;20152;-75
2023/11/01 00:58:40;;;;;;;2.90;1.42;;;;;;;6.74;83.45;92538.56;2054360;70;20169;-75
2023/11/01 01:01:06;;;;;;;4.22;2.00;;;;;;;6.35;84.94;92546.94;2054913;69;20146;-75
2023/11/01 01:03:35;;;;;;;3.33;2.10;;;;;;;6.43;85.16;92549.59;2054896;69;20216;-74
2023/11/01 01:06:10;;;;;;;4.55;1.88;;;;;;;6.51;84.56;92558.59;2057232;69;20156;-76
2023/11/01 01:08:36;;;;;;;3.97;2.00;;;;;;;6.60;84.21;92564.19;2054282;69;20221;-75
2023/11/01 01:11:06;;;;;;;5.10;1.90;;;;;;;6.40;85.04;92559.16;2054240;70;20741;-75
2023/11/01 01:13:34;;;;;;;3.22;1.77;;;;;;;6.36;84.58;92549.16;2054855;69;20150;-74
2023/11/01 01:16:13;;;;;;;6.50;2.42;;;;;;;6.10;85.76;92547.22;2054973;69;20177;-75
2023/11/01 01:18:49;;;;;;;2.72;2.10;;;;;;;6.36;84.23;92537.97;2055257;69;20196;-77
2023/11/01 01:21:17;;;;;;;4.47;1.80;;;;;;;6.32;83.89;92548.09;2055210;69;20602;-75
2023/11/01 01:23:45;;;;;;;2.78;1.98;;;;;;;6.33;83.57;92538.41;2054749;69;20196;-75
2023/11/01 01:26:37;;;;;;;3.58;2.30;;;;;;;6.29;84.23;92533.25;2055013;69;20708;-76
2023/11/01 01:29:07;;;;;;;5.43;2.03;;;;;;;6.33;83.36;92538.41;2054596;70;20158;-75
2023/11/01 01:31:34;;;;;;;2.75;1.83;;;;;;;6.30;83.57;92531.94;2055097;69;20134;-76
2023/11/01 01:34:07;;;;;;;5.00;2.05;;;;;;;6.25;83.63;92530.16;2054596;70;20157;-75
2023/11/01 01:36:33;;;;;;;2.72;2.00;;;;;;;6.23;83.71;92518.09;2054627;70;20153;-76
2023/11/01 01:39:08;;;;;;;4.53;2.15;;;;;;;6.24;83.61;92525.91;2057223;69;20176;-75
2023/11/01 01:41:44;;;;;;;4.40;2.15;;;;;;;6.19;84.10;92524.13;2055053;69;20534;-74
2023/11/01 01:44:17;;;;;;;4.72;2.03;;;;;;;6.21;84.42;92524.28;2054883;70;20152;-76
2023/11/01 01:46:45;;;;;;;2.97;1.90;;;;;;;5.93;84.44;92520.13;2055066;69;20215;-75
2023/11/01 01:49:19;;;;;;;3.58;2.10;;;;;;;5.99;85.24;92517.03;2054806;69;20145;-76
2023/11/01 01:51:45;;;;;;;6.63;2.10;;;;;;;6.05;84.57;92525.88;2054220;69;20658;-76
2023/11/01 01:54:22;;;;;;;4.28;1.95;;;;;;;6.00;83.67;92524.84;2054348;70;20247;-75
2023/11/01 01:57:00;;;;;;;1.77;1.50;;;;;;;6.07;83.51;92526.75;2054209;70;20146;-75
2023/11/01 01:59:30;;;;;;;4.45;1.77;;;;;;;6.07;84.02;92521.16;2054871;69;20160;-76
2023/11/01 02:01:59;;;;;;;2.17;1.60;;;;;;;6.08;84.31;92513.50;2054966;69;20221;-75
2023/11/01 02:04:30;;;;;;;2.50;2.10;;;;;;;5.85;84.43;92516.69;2054285;69;20601;-74
2023/11/01 02:07:07;;;;;;;3.08;1.70;;;;;;;5.97;83.43;92511.31;2054699;69;20513;-74
2023/11/01 02:09:37;;;;;;;4.30;1.73;;;;;;;5.86;84.39;92504.19;2054528;69;20653;-74
2023/11/01 02:12:23;;;;;;;3.65;1.65;;;;;;;5.51;85.50;92473.69;2054973;69;20241;-78
2023/11/01 02:14:56;;;;;;;4.38;1.85;;;;;;;5.63;84.44;92498.97;2057037;69;20149;-75
2023/11/01 02:17:26;;;;;;;4.60;1.98;;;;;;;5.67;84.07;92470.63;2054694;70;20136;-76
2023/11/01 02:19:56;;;;;;;4.18;2.15;;;;;;;5.97;84.07;92492.47;2054440;69;20158;-75
2023/11/01 02:22:22;;;;;;;6.68;1.95;;;;;;;5.89;83.59;92471.56;2054863;69;20146;-74
2023/11/01 02:24:51;;;;;;;2.65;1.90;;;;;;;5.99;83.83;92495.41;2053862;70;20149;-73
2023/11/01 02:27:17;;;;;;;34.78;3.00;;;;;;;5.79;84.44;92486.25;2053792;70;20611;-74
2023/11/01 02:29:47;;;;;;;18.73;2.70;;;;;;;5.87;84.31;92486.13;2057069;69;20626;-75
2023/11/01 02:32:13;;;;;;;4.63;1.92;;;;;;;5.93;84.24;92483.06;2054179;70;20138;-75
2023/11/01 02:34:39;;;;;;;3.13;2.17;;;;;;;5.96;84.27;92476.31;2054201;70;20617;-74
2023/11/01 02:37:06;;;;;;;208.65;8.60;;;;;;;5.95;84.59;92475.56;2054648;69;20146;-74
2023/11/01 02:39:33;;;;;;;27.08;3.08;;;;;;;5.93;84.11;92464.25;2054159;69;20146;-75
2023/11/01 02:42:00;;;;;;;96.93;5.05;;;;;;;5.88;84.58;92462.44;2054215;70;20150;-74
2023/11/01 02:44:26;;;;;;;161.90;5.15;;;;;;;5.86;84.40;92471.41;2054365;69;20161;-78
2023/11/01 02:46:54;;;;;;;166.80;6.18;;;;;;;5.74;84.55;92439.06;2053962;70;20388;-76
2023/11/01 02:49:20;;;;;;;146.82;5.07;;;;;;;5.88;84.54;92444.94;2054601;69;20153;-73
2023/11/01 02:51:47;;;;;;;125.68;5.38;;;;;;;5.92;84.62;92453.66;2054397;69;20130;-75
2023/11/01 02:54:13;;;;;;;78.30;3.58;;;;;;;5.87;84.78;92444.22;2054199;69;20244;-75
2023/11/01 02:56:40;;;;;;;159.48;6.53;;;;;;;5.71;86.13;92454.91;2054322;69;20233;-73
2023/11/01 02:59:06;;;;;;;207.02;7.65;;;;;;;5.83;86.09;92461.41;2054934;69;20188;-75
2023/11/01 03:01:33;;;;;;;246.05;9.93;;;;;;;5.42;86.88;92463.22;2054322;69;20614;-76
2023/11/01 03:03:59;;;;;;;114.50;5.82;;;;;;;5.71;87.40;92456.97;2054287;69;20153;-76
2023/11/01 03:06:24;;;;;;;199.68;7.60;;;;;;;5.64;87.04;92452.28;2054255;70;20175;-79
2023/11/01 03:08:51;;;;;;;204.73;6.68;;;;;;;5.36;88.12;92457.19;2056439;69;20295;-77
2023/11/01 03:11:17;;;;;;;151.10;5.68;;;;;;;5.49;88.68;92442.06;2054240;69;20148;-75
2023/11/01 03:13:42;;;;;;;128.88;5.80;;;;;;;5.77;88.25;92443.44;2056607;69;20153;-74
2023/11/01 03:16:09;;;;;;;61.53;6.15;;;;;;;6.03;87.38;92459.38;2053902;70;20138;-77
2023/11/01 03:18:36;;;;;;;33.58;3.83;;;;;;;6.06;86.93;92463.06;2053696;70;20175;-78
2023/11/01 03:21:05;;;;;;;19.80;3.47;;;;;;;6.15;86.32;92467.94;2054170;70;20173;-76
2023/11/01 03:23:31;;;;;;;21.67;2.88;;;;;;;6.20;86.22;92455.72;2056260;69;20883;-76
2023/11/01 03:26:01;;;;;;;84.18;4.25;;;;;;;6.02;86.21;92457.19;2054309;69;20538;-76
2023/11/01 03:28:27;;;;;;;309.38;8.30;;;;;;;5.70;87.73;92458.28;2054565;69;20142;-77
2023/11/01 03:30:52;;;;;;;167.38;6.47;;;;;;;5.93;87.25;92455.13;2053604;70;20514;-76
2023/11/01 03:33:18;;;;;;;58.10;3.92;;;;;;;6.10;87.19;92457.78;2054371;69;20212;-77
2023/11/01 03:35:44;;;;;;;137.10;5.03;;;;;;;6.03;86.55;92453.06;2056479;69;20138;-76
2023/11/01 03:38:12;;;;;;;125.05;9.32;;;;;;;5.50;87.78;92454.75;2054513;70;20145;-76
2023/11/01 03:40:37;;;;;;;175.70;17.75;;;;;;;5.53;88.75;92471.03;2054456;70;20150;-74
2023/11/01 03:43:04;;;;;;;149.85;14.95;;;;;;;5.86;88.10;92467.88;2055114;70;20154;-78
2023/11/01 03:45:29;;;;;;;293.58;31.95;;;;;;;5.89;88.07;92460.38;2054375;69;20153;-76
2023/11/01 03:47:56;;;;;;;190.40;15.77;;;;;;;5.25;88.98;92458.47;2053957;70;20193;-75
2023/11/01 03:50:28;;;;;;;87.28;5.57;;;;;;;5.41;89.56;92458.25;2054960;69;20146;-74
2023/11/01 03:52:54;;;;;;;16.52;3.88;;;;;;;5.72;88.05;92450.78;2056994;69;20177;-75
2023/11/01 03:55:20;;;;;;;46.13;5.78;;;;;;;5.82;86.77;92448.78;2054626;69;20153;-77
2023/11/01 03:57:46;;;;;;;113.55;21.58;;;;;;;5.49;88.01;92444.88;2054224;69;20241;-76
2023/11/01 04:00:20;;;;;;;113.95;6.97;;;;;;;5.31;89.39;92447.03;2054343;70;20126;-74
2023/11/01 04:02:49;;;;;;;44.88;4.80;;;;;;;5.61;88.00;92443.72;2046057;70;20594;-75
2023/11/01 04:05:17;;;;;;;52.45;4.93;;;;;;;5.54;87.02;92436.22;2054417;70;20176;-76
2023/11/01 04:07:44;;;;;;;33.75;4.70;;;;;;;5.55;87.49;92434.91;2055126;69;20162;-75
2023/11/01 04:10:11;;;;;;;37.78;5.28;;;;;;;5.59;87.03;92445.66;2054579;70;20240;-78
2023/11/01 04:12:36;;;;;;;27.10;5.88;;;;;;;5.54;86.58;92436.22;2055402;69;20273;-75
2023/11/01 04:15:07;;;;;;;13.48;5.63;;;;;;;5.52;86.22;92424.16;2055167;69;20149;-77
2023/11/01 04:17:33;;;;;;;15.25;4.90;;;;;;;5.45;85.57;92413.84;2055153;69;20142;-80
2023/11/01 04:19:59;;;;;;;9.15;3.75;;;;;;;5.23;85.59;92391.34;2055094;69;20130;-78
2023/11/01 04:22:27;;;;;;;7.55;3.55;;;;;;;5.37;85.43;92416.06;2055213;69;20162;-77
2023/11/01 04:24:54;;;;;;;6.85;3.20;;;;;;;5.36;85.00;92409.75;2054653;69;20232;-76
2023/11/01 04:27:21;;;;;;;4.43;2.45;;;;;;;5.32;85.05;92412.97;2055443;69;20145;-77
2023/11/01 04:29:47;;;;;;;4.22;2.17;;;;;;;5.14;85.18;92402.47;2054827;69;20169;-77
2023/11/01 04:32:14;;;;;;;6.20;1.10;;;;;;;5.21;85.68;92405.13;2055204;69;20224;-79
2023/11/01 04:34:39;;;;;;;3.00;1.38;;;;;;;5.35;84.86;92408.97;2055224;70;20538;-77
2023/11/01 04:37:06;;;;;;;4.47;1.60;;;;;;;5.22;84.83;92406.63;2055228;69;20165;-77
2023/11/01 04:39:32;;;;;;;5.03;1.48;;;;;;;5.04;85.72;92392.03;2055167;69;20237;-76
2023/11/01 04:41:57;;;;;;;2.05;1.30;;;;;;;5.08;84.97;92397.16;2055307;69;20320;-78
2023/11/01 04:44:23;;;;;;;3.30;1.70;;;;;;;5.05;85.06;92401.88;2057553;69;20138;-77
2023/11/01 04:46:50;;;;;;;2.33;1.80;;;;;;;5.01;84.84;92398.03;2055254;69;20164;-76
2023/11/01 04:49:16;;;;;;;2.95;1.48;;;;;;;5.02;84.86;92389.06;2055170;69;20208;-78
2023/11/01 04:51:43;;;;;;;2.90;1.92;;;;;;;5.03;84.35;92390.53;2054703;69;20150;-79
2023/11/01 04:54:09;;;;;;;2.03;1.60;;;;;;;5.03;84.01;92384.97;2054960;69;20154;-76
2023/11/01 04:56:34;;;;;;;3.67;2.03;;;;;;;4.92;84.43;92382.72;2055088;69;20192;-79
2023/11/01 04:59:00;;;;;;;5.35;1.90;;;;;;;4.41;84.84;92392.06;2055005;69;20146;-77
2023/11/01 05:01:30;;;;;;;3.45;2.03;;;;;;;4.78;84.76;92401.19;2054983;70;20581;-77
2023/11/01 05:03:56;;;;;;;1.77;1.63;;;;;;;4.91;84.09;92402.84;2055005;69;20452;-79
2023/11/01 05:06:23;;;;;;;2.78;1.77;;;;;;;4.87;83.90;92399.75;2055052;69;20617;-79
2023/11/01 05:08:48;;;;;;;3.10;2.13;;;;;;;4.78;83.76;92404.69;2054939;69;20177;-78
2023/11/01 05:11:14;;;;;;;3.72;1.70;;;;;;;4.82;84.00;92388.28;2055120;69;20181;-77
2023/11/01 05:13:40;;;;;;;1.83;1.55;;;;;;;4.77;83.81;92374.63;2054676;69;20245;-77
2023/11/01 05:16:06;;;;;;;2.50;1.58;;;;;;;4.79;83.96;92385.91;2055122;69;20185;-75
2023/11/01 05:18:31;;;;;;;4.57;3.10;;;;;;;4.84;83.52;92380.06;2054942;69;20192;-76
2023/11/01 05:20:57;;;;;;;14.40;3.60;;;;;;;4.54;84.75;92374.94;2055005;69;20271;-76
2023/11/01 05:23:24;;;;;;;4.93;2.10;;;;;;;4.57;85.02;92380.09;2054885;69;20130;-77
2023/11/01 05:25:49;;;;;;;3.67;2.38;;;;;;;4.68;85.02;92378.09;2055053;69;20146;-77
2023/11/01 05:28:15;;;;;;;4.47;2.13;;;;;;;4.62;84.23;92374.81;2054935;69;20575;-75
2023/11/01 05:30:41;;;;;;;4.88;3.15;;;;;;;4.58;84.54;92370.44;2055016;69;20146;-78
2023/11/01 05:33:07;;;;;;;7.38;4.80;;;;;;;4.64;84.47;92367.38;2055040;69;20180;-75
2023/11/01 05:35:36;;;;;;;6.65;3.97;;;;;;;4.63;84.05;92363.09;2054932;69;20153;-77
2023/11/01 05:38:04;;;;;;;8.45;4.03;;;;;;;4.62;83.96;92352.53;2054967;69;21489;-78
2023/11/01 05:40:30;;;;;;;5.38;3.60;;;;;;;4.64;83.97;92361.78;2054810;70;20570;-77
2023/11/01 05:42:56;;;;;;;6.45;3.78;;;;;;;4.65;83.68;92368.81;2055114;70;20163;-76
2023/11/01 05:45:22;;;;;;;4.25;3.08;;;;;;;4.55;83.53;92368.06;2055035;69;20167;-78
2023/11/01 05:47:49;;;;;;;4.95;2.20;;;;;;;4.60;83.40;92358.69;2055024;69;20137;-75
2023/11/01 05:50:18;;;;;;;3.30;2.80;;;;;;;4.52;84.03;92349.69;2057189;69;20150;-75
2023/11/01 05:52:45;;;;;;;3.80;2.70;;;;;;;4.62;84.02;92369.25;2054926;69;20175;-76
2023/11/01 05:55:11;;;;;;;3.40;2.13;;;;;;;4.54;83.76;92358.22;2054826;69;20177;-75
2023/11/01 05:57:37;;;;;;;5.53;2.30;;;;;;;4.51;83.53;92368.47;2054970;69;20285;-76
2023/11/01 06:00:08;;;;;;;4.28;1.98;;;;;;;4.51;83.99;92367.75;2054955;69;20574;-77
2023/11/01 06:02:37;;;;;;;4.07;1.90;;;;;;;4.34;83.26;92379.69;2054814;70;20185;-77
2023/11/01 06:05:04;;;;;;;3.50;2.60;;;;;;;4.27;84.64;92381.25;2054886;69;20150;-78
2023/11/01 06:07:32;;;;;;;4.88;2.03;;;;;;;4.38;84.33;92388.34;2051767;70;20578;-78
2023/11/01 06:09:58;;;;;;;2.85;2.10;;;;;;;4.34;83.67;92377.63;2054739;69;20142;-79
2023/11/01 06:12:24;;;;;;;4.78;2.20;;;;;;;4.47;83.91;92379.31;2054981;69;20176;-80
2023/11/01 06:14:49;;;;;;;3.10;1.80;;;;;;;4.50;83.75;92377.44;2054306;70;20216;-76
2023/11/01 06:17:15;;;;;;;3.40;1.27;;;;;;;4.44;83.88;92363.00;2054921;69;20170;-75
2023/11/01 06:19:41;;;;;;;3.25;1.48;;;;;;;4.48;83.97;92374.47;2054880;69;20146;-77
2023/11/01 06:22:06;;;;;;;4.65;1.50;;;;;;;4.40;84.34;92385.75;2054383;70;20505;-79
2023/11/01 06:24:32;;;;;;;6.00;1.60;;;;;;;4.46;84.02;92372.25;2054746;69;20156;-79
2023/11/01 06:26:59;;;;;;;2.60;1.05;;;;;;;4.45;84.10;92370.81;2054874;69;20292;-80
2023/11/01 06:29:25;;;;;;;1.33;1.02;;;;;;;4.41;83.83;92369.75;2054976;69;20180;-76
2023/11/01 06:31:51;;;;;;;3.97;0.90;;;;;;;4.40;84.17;92359.91;2054992;69;20221;-75
2023/11/01 06:34:17;;;;;;;2.05;0.90;;;;;;;4.49;84.01;92365.53;2054930;69;20169;-76
2023/11/01 06:36:45;;;;;;;2.05;1.48;;;;;;;4.52;83.86;92372.00;2051685;70;20225;-77
2023/11/01 06:39:10;;;;;;;2.50;1.92;;;;;;;4.56;84.07;92375.81;2057016;69;20146;-77
2023/11/01 06:41:36;;;;;;;6.97;2.00;;;;;;;4.49;84.08;92364.78;2054887;69;20487;-76
2023/11/01 06:44:05;;;;;;;1.55;1.20;;;;;;;4.41;83.99;92376.06;2054773;69;20152;-77
2023/11/01 06:46:32;;;;;;;1.27;1.10;;;;;;;4.50;84.75;92378.16;2054860;69;20253;-77
2023/11/01 06:48:57;;;;;;;2.08;0.75;;;;;;;4.64;84.46;92384.09;2051542;70;20517;-78
2023/11/01 06:51:23;;;;;;;1.00;0.70;;;;;;;4.60;84.53;92372.63;2054838;69;20622;-78
2023/11/01 06:53:49;;;;;;;1.35;1.00;;;;;;;4.65;84.45;92366.03;2051462;70;20622;-78
2023/11/01 06:56:15;;;;;;;1.55;1.00;;;;;;;4.74;83.92;92373.72;2054898;69;20188;-78
2023/11/01 06:58:40;;;;;;;3.53;1.15;;;;;;;4.81;83.79;92374.91;2054768;70;20232;-81
2023/11/01 07:01:07;;;;;;;7.40;4.10;;;;;;;4.38;85.61;92379.25;2054872;69;20149;-76
2023/11/01 07:03:33;;;;;;;6.13;4.00;;;;;;;4.63;84.08;92370.72;2054276;70;20145;-76
2023/11/01 07:05:59;;;;;;;5.80;3.80;;;;;;;4.67;83.86;92368.25;2054703;69;20162;-76
2023/11/01 07:08:24;;;;;;;9.02;4.45;;;;;;;4.59;84.23;92360.75;2054821;70;20170;-77
2023/11/01 07:10:50;;;;;;;6.85;4.90;;;;;;;4.21;85.05;92361.25;2054620;70;20185;-76
2023/11/01 07:13:16;;;;;;;5.88;4.30;;;;;;;4.46;84.55;92349.22;2054154;70;20193;-77
2023/11/01 07:15:42;;;;;;;10.25;3.65;;;;;;;4.61;84.14;92351.78;2054170;70;20136;-74
2023/11/01 07:18:07;;;;;;;5.07;1.88;;;;;;;4.71;84.42;92354.59;2054852;69;20158;-77
2023/11/01 07:20:34;;;;;;;5.05;2.10;;;;;;;4.71;83.72;92358.13;2054727;69;20154;-77
2023/11/01 07:23:03;;;;;;;4.53;2.13;;;;;;;4.75;84.00;92352.13;2055099;69;20587;-77
2023/11/01 07:25:28;;;;;;;5.25;2.08;;;;;;;4.78;83.65;92340.56;2055053;69;20519;-77
2023/11/01 07:27:55;;;;;;;3.33;1.83;;;;;;;4.87;83.41;92333.53;2055120;69;20150;-77
2023/11/01 07:30:21;;;;;;;2.63;1.80;;;;;;;4.91;83.64;92333.84;2055201;69;20153;-79
2023/11/01 07:32:47;;;;;;;3.00;1.70;;;;;;;4.76;84.69;92336.88;2055191;69;20621;-76
2023/11/01 07:35:14;;;;;;;9.15;1.95;;;;;;;4.87;84.27;92339.13;2055144;69;20606;-75
2023/11/01 07:37:41;;;;;;;3.92;1.73;;;;;;;4.91;83.93;92335.91;2055290;69;20146;-76
2023/11/01 07:40:08;;;;;;;3.97;2.10;;;;;;;4.93;83.94;92333.97;2054868;69;20184;-75
2023/11/01 07:42:34;;;;;;;4.03;2.20;;;;;;;4.95;83.49;92331.38;2055068;69;20138;-75
2023/11/01 07:44:59;;;;;;;3.80;2.03;;;;;;;4.99;83.47;92319.75;2055204;70;20208;-76
2023/11/01 07:47:25;;;;;;;3.15;1.38;;;;;;;5.07;82.93;92323.16;2055191;69;20181;-76
2023/11/01 07:49:52;;;;;;;2.00;1.25;;;;;;;4.86;83.65;92309.75;2055122;69;20146;-78
2023/11/01 07:52:21;;;;;;;3.00;1.13;;;;;;;4.97;83.99;92300.81;2055225;69;20154;-77
2023/11/01 07:54:46;;;;;;;4.40;1.25;;;;;;;4.91;84.38;92303.16;2055066;69;20138;-78
2023/11/01 07:57:12;;;;;;;1.85;1.23;;;;;;;5.08;83.78;92299.50;2055347;70;20157;-79
2023/11/01 07:59:37;;;;;;;3.97;1.60;;;;;;;5.14;83.16;92296.44;2055364;69;20161;-79
2023/11/01 08:02:03;;;;;;;3.33;2.05;;;;;;;4.97;84.09;92302.88;2055179;69;20157;-77
2023/11/01 08:04:29;;;;;;;3.25;1.60;;;;;;;5.01;84.44;92289.97;2055099;70;20130;-77
2023/11/01 08:06:57;;;;;;;7.60;4.32;;;;;;;5.17;83.45;92293.19;2055471;69;20194;-76
2023/11/01 08:09:24;;;;;;;8.25;4.10;;;;;;;5.57;85.86;92300.28;2054990;69;20177;-77
2023/11/01 08:11:50;;;;;;;7.72;4.85;;;;;;;6.13;85.38;92297.28;2055129;69;20130;-79
2023/11/01 08:14:15;;;;;;;4.72;3.10;;;;;;;6.55;85.50;92299.53;2055284;69;20154;-76
2023/11/01 08:16:42;;;;;;;3.53;2.20;;;;;;;6.79;84.52;92288.53;2055114;69;20565;-77
2023/11/01 08:19:09;;;;;;;5.35;2.17;;;;;;;7.08;84.56;92297.50;2057335;69;20153;-78
2023/11/01 08:21:36;;;;;;;2.63;1.90;;;;;;;7.34;81.18;92303.38;2054727;69;20149;-80
2023/11/01 08:24:02;;;;;;;3.90;2.13;;;;;;;7.85;82.11;92298.25;2055021;69;20178;-79
2023/11/01 08:26:28;;;;;;;8.50;4.75;;;;;;;7.59;77.58;92297.28;2055084;69;20189;-76
2023/11/01 08:28:54;;;;;;;6.60;4.00;;;;;;;7.88;76.83;92297.06;2055230;70;20157;-79
2023/11/01 08:31:21;;;;;;;5.47;2.38;;;;;;;8.43;77.74;92297.75;2055740;69;20518;-79
2023/11/01 08:33:48;;;;;;;8.32;4.88;;;;;;;8.79;77.38;92301.28;2055028;69;20145;-77
2023/11/01 08:36:13;;;;;;;10.90;6.40;;;;;;;9.15;78.20;92291.53;2055052;69;20145;-77
2023/11/01 08:38:40;;;;;;;10.35;4.97;;;;;;;9.13;77.11;92283.72;2054943;69;20138;-76
2023/11/01 08:41:05;;;;;;;5.22;2.97;;;;;;;9.31;74.75;92289.69;2055123;69;20202;-76
2023/11/01 08:43:32;;;;;;;2.80;2.05;;;;;;;8.85;72.91;92282.75;2055114;69;20150;-76
2023/11/01 08:45:57;;;;;;;7.07;4.43;;;;;;;9.39;74.26;92284.53;2055148;69;20157;-76
2023/11/01 08:48:23;;;;;;;4.85;3.03;;;;;;;10.23;72.85;92280.09;2054615;70;20488;-76
2023/11/01 08:50:48;;;;;;;1.95;1.40;;;;;;;10.48;69.74;92270.91;2055163;69;20158;-75
2023/11/01 08:53:15;;;;;;;3.65;2.40;;;;;;;10.74;69.59;92274.41;2055111;69;20521;-76
2023/11/01 08:55:40;;;;;;;3.20;1.75;;;;;;;10.71;67.74;92267.22;2054929;69;20181;-79
2023/11/01 08:58:06;;;;;;;4.93;2.80;;;;;;;10.52;68.52;92271.13;2055120;69;20129;-78
2023/11/01 09:00:33;;;;;;;6.28;3.80;;;;;;;10.70;68.33;92272.09;2054608;69;20181;-78
2023/11/01 09:03:01;;;;;;;5.95;3.38;;;;;;;11.37;67.44;92267.16;2055076;69;20593;-77
2023/11/01 09:05:27;;;;;;;5.80;3.78;;;;;;;11.62;65.51;92265.53;2055137;69;20672;-79
2023/11/01 09:07:53;;;;;;;4.55;2.40;;;;;;;11.94;63.84;92261.53;2054963;69;20138;-79
2023/11/01 09:10:19;;;;;;;3.83;2.63;;;;;;;12.49;63.29;92252.13;2054879;69;20642;-77
2023/11/01 09:12:44;;;;;;;4.75;2.72;;;;;;;11.96;60.54;92244.00;2054468;69;20244;-76
2023/11/01 09:15:11;;;;;;;3.83;2.95;;;;;;;12.34;62.48;92250.00;2055076;69;20476;-77
2023/11/01 09:17:39;;;;;;;3.35;2.60;;;;;;;11.91;64.81;92250.78;2055293;69;20236;-76
2023/11/01 09:20:06;;;;;;;3.10;2.13;;;;;;;12.13;64.90;92240.56;2054482;70;20173;-76
2023/11/01 09:22:32;;;;;;;4.13;2.72;;;;;;;12.90;61.96;92242.66;2055046;69;20245;-77
2023/11/01 09:24:59;;;;;;;4.40;1.95;;;;;;;12.85;59.19;92241.03;2054885;69;20133;-80
2023/11/01 09:27:25;;;;;;;5.57;1.58;;;;;;;12.51;59.84;92240.19;2055118;69;20609;-85
2023/11/01 09:29:52;;;;;;;2.53;1.67;;;;;;;12.51;60.88;92238.09;2055018;69;20146;-79
2023/11/01 09:32:20;;;;;;;2.97;1.80;;;;;;;12.44;60.30;92233.53;2054936;69;20216;-80
2023/11/01 09:34:49;;;;;;;4.45;2.08;;;;;;;13.73;59.40;92220.84;2054360;70;20601;-79
2023/11/01 09:37:21;;;;;;;2.75;2.00;;;;;;;14.59;57.92;92218.59;2055063;69;20162;-79
2023/11/01 09:39:47;;;;;;;1.85;1.40;;;;;;;14.54;55.17;92214.16;2054208;69;20161;-79
2023/11/01 09:42:23;;;;;;;3.22;2.22;;;;;;;15.00;53.97;92212.34;2054960;70;20549;-78
2023/11/01 09:44:56;;;;;;;1.30;1.00;;;;;;;15.32;51.57;92212.06;2054716;69;20240;-80
2023/11/01 09:47:26;;;;;;;2.00;0.70;;;;;;;16.09;51.68;92210.44;2054954;69;20150;-79
2023/11/01 09:49:54;;;;;;;1.88;0.60;;;;;;;15.94;49.54;92212.81;2054536;69;20617;-80
2023/11/01 09:52:23;;;;;;;0.93;0.75;;;;;;;15.53;49.57;92204.97;2055006;69;20220;-77
2023/11/01 09:54:55;;;;;;;2.83;1.00;;;;;;;13.85;52.94;92200.09;2054832;69;20613;-81
2023/11/01 09:57:22;;;;;;;1.52;0.98;;;;;;;15.39;52.92;92199.53;2054898;69;20142;-77
2023/11/01 09:59:50;;;;;;;0.77;0.77;;;;;;;14.08;53.45;92204.56;2054882;69;20685;-78
2023/11/01 10:02:16;;;;;;;1.45;1.20;;;;;;;13.74;53.14;92204.59;2054963;69;20571;-76
2023/11/01 10:04:43;;;;;;;4.45;3.40;;;;;;;15.49;52.47;92213.38;2054895;69;20240;-77
2023/11/01 10:07:10;;;;;;;1.98;1.52;;;;;;;16.11;49.88;92214.06;2054919;69;20138;-77
2023/11/01 10:09:37;;;;;;;2.10;1.50;;;;;;;17.31;47.56;92204.88;2054187;69;20166;-79
2023/11/01 10:12:07;;;;;;;1.65;1.10;;;;;;;16.91;46.79;92202.34;2054344;70;20177;-80
2023/11/01 10:14:37;;;;;;;2.13;1.10;;;;;;;14.17;51.09;92190.06;2054946;69;20145;-80
2023/11/01 10:17:04;;;;;;;34.10;19.15;;;;;;;15.40;50.79;92188.94;2057354;69;20236;-78
2023/11/01 10:19:31;;;;;;;25.13;16.33;;;;;;;14.83;50.39;92179.13;2052914;70;20146;-82
2023/11/01 10:21:57;;;;;;;2.35;1.60;;;;;;;15.62;49.59;92171.94;2054949;69;20189;-79
2023/11/01 10:24:27;;;;;;;1.77;0.85;;;;;;;16.29;48.50;92179.13;2054686;69;20236;-80
2023/11/01 10:26:55;;;;;;;1.80;0.70;;;;;;;16.14;48.75;92175.09;2054720;69;20542;-79
2023/11/01 10:29:24;;;;;;;2.22;0.75;;;;;;;15.79;48.66;92168.31;2054874;70;20156;-80
2023/11/01 10:31:59;;;;;;;1.27;0.80;;;;;;;15.13;49.72;92156.81;2054820;69;20534;-78
2023/11/01 10:34:31;;;;;;;1.17;0.90;;;;;;;15.00;49.58;92157.78;2054947;69;20610;-80
2023/11/01 10:36:59;;;;;;;4.15;1.20;;;;;;;13.97;53.09;92156.03;2054795;69;20167;-78
2023/11/01 10:39:27;;;;;;;2.50;1.00;;;;;;;14.10;51.29;92162.16;2056986;69;20146;-80
2023/11/01 10:41:55;;;;;;;0.93;0.80;;;;;;;14.47;51.04;92150.84;2054847;70;20205;-77
2023/11/01 10:44:22;;;;;;;1.20;0.90;;;;;;;14.77;49.95;92144.91;2054780;69;20578;-78
2023/11/01 10:46:49;;;;;;;1.55;1.10;;;;;;;15.18;51.42;92144.25;2054775;69;20138;-77
2023/11/01 10:49:16;;;;;;;1.70;1.23;;;;;;;15.39;50.43;92127.91;2054809;69;20134;-78
2023/11/01 10:51:43;;;;;;;2.33;1.45;;;;;;;15.21;49.88;92125.94;2054290;69;20225;-77
2023/11/01 10:54:11;;;;;;;2.53;1.60;;;;;;;14.97;49.63;92120.13;2054586;69;20148;-79
2023/11/01 10:56:37;;;;;;;2.08;1.20;;;;;;;15.32;50.79;92123.44;2054268;69;20184;-78
2023/11/01 10:59:22;;;;;;;3.35;1.80;;;;;;;14.48;50.93;92121.22;2054856;69;20212;-78
2023/11/01 11:02:00;;;;;;;3.55;1.88;;;;;;;15.14;50.87;92123.53;2054816;69;20347;-78
2023/11/01 11:04:34;;;;;;;2.70;1.70;;;;;;;14.39;50.33;92115.88;2054775;69;20182;-78
2023/11/01 11:07:25;;;;;;;8.05;3.10;;;;;;;14.39;51.21;92119.44;2054274;69;20216;-77
2023/11/01 11:10:23;;;;;;;3.25;1.73;;;;;;;15.27;52.64;92119.00;2054656;70;20153;-80
2023/11/01 11:13:08;;;;;;;2.10;1.33;;;;;;;15.56;50.69;92112.19;2054787;69;20145;-77
2023/11/01 11:18:29;;;;;;;4.47;1.85;;;;;;;16.50;49.97;92098.81;2054909;70;20201;-79
2023/11/01 11:21:01;;;;;;;3.63;2.22;;;;;;;16.07;50.28;92097.53;2054572;69;20166;-75
2023/11/01 11:23:32;;;;;;;5.57;3.03;;;;;;;15.52;51.76;92092.91;2051420;69;20158;-77
2023/11/01 11:26:00;;;;;;;4.65;2.70;;;;;;;15.15;52.08;92082.47;2051439;70;20241;-77
2023/11/01 11:28:46;;;;;;;4.88;2.00;;;;;;;15.17;51.29;92085.38;2051454;70;20170;-79
2023/11/01 11:31:18;;;;;;;2.83;1.92;;;;;;;14.91;50.46;92083.06;2051513;69;20153;-78
2023/11/01 11:33:49;;;;;;;3.77;2.33;;;;;;;14.90;50.39;92090.13;2051413;70;20171;-79
2023/11/01 11:36:27;;;;;;;4.60;2.63;;;;;;;14.82;50.16;92083.44;2051378;70;20154;-78
2023/11/01 11:39:05;;;;;;;3.50;2.30;;;;;;;14.87;49.92;92073.72;2051366;70;20130;-78
2023/11/01 11:41:40;;;;;;;4.95;1.25;;;;;;;12.78;55.37;92081.84;2051378;70;20138;-79
2023/11/01 11:44:20;;;;;;;1.75;1.20;;;;;;;13.61;53.88;92081.78;2051384;69;20176;-78